PWSweather.com
Personal Weather Stations
Station Observations
CW9610
Rural Jefferson County, Mclouth, KS 66054

Rural Jefferson CountyMclouth, KS 66054

Lat: 39.1947, Lon: -95.238

Elevation: 1151

Station Type: LaCrosse WS-2315

http://mclwx.info

Latest ConditionsUpdated 9:30:19 AM CDT Monday, Apr 21, 2014
Currently Today's Max Today's Min Today's Average
Temperature 62.5°F16.9°C 63.7°F17.6°C 59.2°F15.1°C 61.3°F16.3°C
Dew Point 57.6°F14.2°C 57.6°F14.2°C 54.2°F12.3°C 55.0°F12.8°C
Winds 3.7 mph WSW6.0 kmh WSW 5.9 mph SSW9.5 kmh SSW - 3.5 mph 5.6 kmh
Wind Gusts 6.0 mph9.7 kmh 8.0 mph12.9 kmh - -
Humidity 84% 86% 73% 80%
Pressure 29.93 in1013.5 mb 29.94 in1013.9 mb 29.90 in1012.5 mb -
Precipitation - 0.01 in0.3 mm - -
Hour Temp Dew Point Humidity Winds Wind Gusts Pressure Precip Precip Rate Daily Precip Total
09:30 AM 62.5°F16.9°C 57.6°F14.2°C 84% 3.7 mph WSW6.0 kmh WSW 6.0 mph9.7 kmh 29.93 in1013.5 mb 0.00 in0.0 mm 0.00 in/hr0.0 mm/hr 0.01 in0.3 mm
09:00 AM 61.6°F16.4°C 56.3°F13.5°C 83% 5.9 mph SSW9.5 kmh SSW 8.0 mph12.9 kmh 29.93 in1013.5 mb 0.00 in0.0 mm 0.00 in/hr0.0 mm/hr 0.01 in0.3 mm
08:30 AM 60.9°F16.1°C 56.3°F13.5°C 85% 4.0 mph SW6.4 kmh SW 7.0 mph11.3 kmh 29.93 in1013.5 mb 0.00 in0.0 mm 0.00 in/hr0.0 mm/hr 0.01 in0.3 mm
08:00 AM 60.1°F15.6°C 55.5°F13.1°C 85% 5.1 mph SW8.2 kmh SW 6.0 mph9.7 kmh 29.93 in1013.5 mb 0.00 in0.0 mm 0.00 in/hr0.0 mm/hr 0.01 in0.3 mm
07:30 AM 59.2°F15.1°C 55.0°F12.8°C 86% 4.5 mph SSW7.2 kmh SSW 5.0 mph8.0 kmh 29.92 in1013.2 mb 0.00 in0.0 mm 0.00 in/hr0.0 mm/hr 0.01 in0.3 mm
07:00 AM 59.3°F15.2°C 54.8°F12.7°C 85% 1.9 mph SSW3.1 kmh SSW 3.0 mph4.8 kmh 29.92 in1013.2 mb 0.00 in0.0 mm 0.00 in/hr0.0 mm/hr 0.01 in0.3 mm
06:30 AM 59.5°F15.3°C 54.6°F12.6°C 84% 3.7 mph SSW6.0 kmh SSW 5.0 mph8.0 kmh 29.92 in1013.2 mb 0.00 in0.0 mm 0.00 in/hr0.0 mm/hr 0.01 in0.3 mm
06:00 AM 59.6°F15.3°C 54.7°F12.6°C 84% 2.5 mph S4.0 kmh S 4.0 mph6.4 kmh 29.91 in1012.9 mb 0.00 in0.0 mm 0.00 in/hr0.0 mm/hr 0.01 in0.3 mm
05:30 AM 59.5°F15.3°C 54.3°F12.4°C 83% 4.1 mph SSW6.6 kmh SSW 5.0 mph8.0 kmh 29.90 in1012.5 mb 0.00 in0.0 mm 0.00 in/hr0.0 mm/hr 0.01 in0.3 mm
05:00 AM 59.7°F15.4°C 54.5°F12.5°C 83% 2.8 mph SW4.5 kmh SW 4.0 mph6.4 kmh 29.91 in1012.9 mb 0.00 in0.0 mm 0.00 in/hr0.0 mm/hr 0.01 in0.3 mm
04:30 AM 60.6°F15.9°C 54.4°F12.4°C 80% 3.9 mph SW6.3 kmh SW 5.0 mph8.0 kmh 29.91 in1012.9 mb 0.00 in0.0 mm 0.00 in/hr0.0 mm/hr 0.01 in0.3 mm
04:00 AM 61.3°F16.3°C 54.3°F12.4°C 78% 2.4 mph SW3.9 kmh SW 4.0 mph6.4 kmh 29.91 in1012.9 mb 0.00 in0.0 mm 0.00 in/hr0.0 mm/hr 0.01 in0.3 mm
03:30 AM 61.5°F16.4°C 54.2°F12.3°C 77% 1.0 mph SW1.6 kmh SW 1.0 mph1.6 kmh 29.91 in1012.9 mb 0.00 in0.0 mm 0.00 in/hr0.0 mm/hr 0.01 in0.3 mm
03:00 AM 62.6°F17.0°C 54.5°F12.5°C 75% 5.1 mph SW8.2 kmh SW 6.0 mph9.7 kmh 29.92 in1013.2 mb 0.00 in0.0 mm 0.00 in/hr0.0 mm/hr 0.01 in0.3 mm
02:30 AM 62.4°F16.9°C 54.7°F12.6°C 76% 3.4 mph SW5.5 kmh SW 5.0 mph8.0 kmh 29.92 in1013.2 mb 0.00 in0.0 mm 0.00 in/hr0.0 mm/hr 0.01 in0.3 mm
02:00 AM 62.6°F17.0°C 54.9°F12.7°C 76% 3.6 mph SSW5.8 kmh SSW 5.0 mph8.0 kmh 29.93 in1013.5 mb 0.01 in0.3 mm 0.02 in/hr0.5 mm/hr 0.01 in0.3 mm
01:30 AM 62.7°F17.1°C 55.0°F12.8°C 76% 4.6 mph SSW7.4 kmh SSW 7.0 mph11.3 kmh 29.93 in1013.5 mb 0.00 in0.0 mm 0.00 in/hr0.0 mm/hr 0.00 in0.0 mm
01:00 AM 62.9°F17.2°C 54.9°F12.7°C 75% 2.1 mph S3.4 kmh S 3.0 mph4.8 kmh 29.93 in1013.5 mb 0.00 in0.0 mm 0.00 in/hr0.0 mm/hr 0.00 in0.0 mm
12:30 AM 63.3°F17.4°C 54.9°F12.7°C 74% 2.6 mph S4.2 kmh S 3.0 mph4.8 kmh 29.93 in1013.5 mb 0.00 in0.0 mm 0.00 in/hr0.0 mm/hr 0.00 in0.0 mm
12:00 AM 63.7°F17.6°C 54.8°F12.7°C 73% 2.2 mph S3.5 kmh S 3.0 mph4.8 kmh 29.94 in1013.9 mb 0.00 in0.0 mm 0.00 in/hr0.0 mm/hr 0.00 in0.0 mm